Main page
METAR-TAF:

METAR-TAF

Airports :

Kullu–Manali Airport

Kullu / Manali, India

latitude: 31-52-36N, longitude: 77-09-16E, elevation: 1089 m

Current weather observation

The report was made 23 minutes ago, at 06:00 UTC
Calm wind
Temperature 25°C
Humidity 89%
Pressure 1007 hPa
Visibility: 6000 m
Scattered clouds at a height of 600 ft
Broken clouds at a height of 2500 ft
Overcast at a height of 8000 ft

METAR: VIBR 300600Z 00000KT 6000 SCT006 BKN025 OVC080 25/23 Q1007

Time: 11:53 (06:23 UTC)

Forecast

The report was made 1 hour and 23 minutes ago, at 05:00 UTC
Forecast valid from 30 at 06 UTC to 30 at 15 UTC
Wind 2 kt from variable directions
Visibility: 5000 m
Scattered clouds at a height of 500 ft
Broken clouds at a height of 2500 ft
Overcast at a height of 8000 ft
mist, light rain
Temporary
from 30 at 09 UTC to 30 at 12 UTC
Few clouds at a height of 3000 ft, Cumulonimbus.

TAF: VIBR 300500Z 3006/3015 VRB02KT 5000 BR -RA SCT005 BKN025 OVC080 TEMPO 3009/3012 FEW030CB

Weather observations and forecasts of more than 4000 airports (METAR and TAF reports).

The available stations are represented by yellow and red dots on the map.

Hover mouse over dot to see the name of the station.

Then click to see weather observations and forecasts.

To change the map : click on the green buttons with a black cross to zoom in, on the green button with a dash to zoom out, or on the green arrows for adjacent maps.


METAR-TAF: